Terminal Aerodrome Forecast
Issued by NWS

Home | Current Version | Previous Version | Text Only | Print | Product List | Glossary On
Versions: 1 2 3 4 5 6 7 8 9 10 11 12 13 14 15 16 17 18 19 20 21 22 23 24 25 26 27
000
FTUS44 KOUN 281147
TAFPNC
TAF
KPNC 281147Z 2812/0112 19013KT 5SM BR BKN120
     FM281700 20015G25KT P6SM BKN120
     FM010300 31015G23KT P6SM SCT040
     FM010900 33012KT P6SM SCT250=

USA.gov is the U.S. government's official web portal to all federal, state and local government web resources and services.